Time;durP1;ratioP1;P1;durP2;ratioP2;P2;SDS_P1;SDS_P2;PMS_P1;PMS_P2;Temp;Humidity;BMP_temperature;BMP_pressure;BME280_temperature;BME280_humidity;BME280_pressure;Samples;Min_cycle;Max_cycle;Signal;HPM_P1;HPM_P2
2022/11/23 00:00:47;;;;;;;0.00;0.00;;;;;;;;;;5051751;28;20032;-86
2022/11/23 00:03:14;;;;;;;0.00;0.00;;;;;;;;;;5051434;28;20453;-88
2022/11/23 00:05:41;;;;;;;0.00;0.00;;;;;;;;;;5051480;28;20071;-88
2022/11/23 00:08:07;;;;;;;0.00;0.00;;;;;;;;;;5051266;28;20355;-88
2022/11/23 00:10:33;;;;;;;0.00;0.00;;;;;;;;;;5050086;28;20068;-87
2022/11/23 00:13:00;;;;;;;0.00;0.00;;;;;;;;;;5051968;28;20466;-87
2022/11/23 00:15:26;;;;;;;0.00;0.00;;;;;;;;;;5049944;28;20028;-88
2022/11/23 00:18:04;;;;;;;0.00;0.00;;;;;;;;;;5050649;28;20029;-95
2022/11/23 00:20:31;;;;;;;0.00;0.00;;;;;;;;;;5048828;28;20029;-87
2022/11/23 00:22:59;;;;;;;0.00;0.00;;;;;;;;;;5051559;28;20025;-90
2022/11/23 00:25:48;;;;;;;0.00;0.00;;;;;;;;;;5044237;28;20025;-91
2022/11/23 00:28:33;;;;;;;;;;;;;;;;;;;;;
2022/11/23 00:31:14;;;;;;;0.00;0.00;;;;;;;;;;5044965;28;20051;-96
2022/11/23 00:33:40;;;;;;;0.00;0.00;;;;;;;;;;5049628;28;20028;-89
2022/11/23 00:36:07;;;;;;;0.00;0.00;;;;;;;;;;5050367;28;20029;-86
2022/11/23 00:38:33;;;;;;;0.00;0.00;;;;;;;;;;5051353;28;20020;-85
2022/11/23 00:41:04;;;;;;;0.00;0.00;;;;;;;;;;5049152;28;20017;-84
2022/11/23 00:43:30;;;;;;;0.00;0.00;;;;;;;;;;5055443;28;20029;-83
2022/11/23 00:46:07;;;;;;;0.00;0.00;;;;;;;;;;5053841;28;20264;-81
2022/11/23 00:48:34;;;;;;;0.00;0.00;;;;;;;;;;5052229;28;20071;-80
2022/11/23 00:51:01;;;;;;;0.00;0.00;;;;;;;;;;5053481;28;20059;-81
2022/11/23 00:53:28;;;;;;;0.00;0.00;;;;;;;;;;5055576;28;20508;-81
2022/11/23 00:55:55;;;;;;;0.00;0.00;;;;;;;;;;5055198;28;20031;-81
2022/11/23 00:58:21;;;;;;;0.00;0.00;;;;;;;;;;5052203;28;20020;-81
2022/11/23 01:00:48;;;;;;;0.00;0.00;;;;;;;;;;5034769;28;20028;-83
2022/11/23 01:03:14;;;;;;;0.00;0.00;;;;;;;;;;5058628;28;20064;-83
2022/11/23 01:05:41;;;;;;;0.00;0.00;;;;;;;;;;5056185;28;20017;-82
2022/11/23 01:08:08;;;;;;;0.00;0.00;;;;;;;;;;5054047;28;20024;-87
2022/11/23 01:14:22;;;;;;;;;;;;;;;;;;;;;
2022/11/23 01:16:54;;;;;;;0.00;0.00;;;;;;;;;;5055074;28;20033;-94
2022/11/23 01:19:20;;;;;;;0.00;0.00;;;;;;;;;;5055192;28;20052;-88
2022/11/23 01:21:47;;;;;;;0.00;0.00;;;;;;;;;;5055462;28;20493;-87
2022/11/23 01:24:17;;;;;;;0.00;0.00;;;;;;;;;;5052270;28;20029;-85
2022/11/23 01:29:58;;;;;;;0.00;0.00;;;;;;;;;;4972089;28;20491;-75
2022/11/23 01:32:24;;;;;;;0.00;0.00;;;;;;;;;;5055990;28;20017;-76
2022/11/23 01:34:50;;;;;;;0.00;0.00;;;;;;;;;;5054978;28;20665;-76
2022/11/23 01:37:16;;;;;;;0.00;0.00;;;;;;;;;;5054789;28;20469;-76
2022/11/23 01:39:43;;;;;;;0.00;0.00;;;;;;;;;;5054693;28;20021;-76
2022/11/23 01:42:09;;;;;;;0.00;0.00;;;;;;;;;;5055492;28;20039;-76
2022/11/23 01:44:40;;;;;;;0.00;0.00;;;;;;;;;;5055910;28;20098;-76
2022/11/23 01:47:07;;;;;;;0.00;0.00;;;;;;;;;;5055369;28;20051;-75
2022/11/23 01:49:36;;;;;;;0.00;0.00;;;;;;;;;;5056677;28;20032;-77
2022/11/23 01:52:05;;;;;;;0.00;0.00;;;;;;;;;;5054433;28;20476;-78
2022/11/23 01:54:38;;;;;;;0.00;0.00;;;;;;;;;;5055058;28;20037;-77
2022/11/23 01:57:07;;;;;;;0.00;0.00;;;;;;;;;;5053951;28;20397;-77
2022/11/23 01:59:34;;;;;;;0.00;0.00;;;;;;;;;;5052880;28;20036;-76
2022/11/23 02:02:01;;;;;;;0.00;0.00;;;;;;;;;;5053563;28;20392;-77
2022/11/23 02:04:30;;;;;;;0.00;0.00;;;;;;;;;;5054863;28;20021;-77
2022/11/23 02:06:57;;;;;;;0.00;0.00;;;;;;;;;;5051250;28;20497;-77
2022/11/23 02:09:24;;;;;;;0.00;0.00;;;;;;;;;;5046383;28;20124;-78
2022/11/23 02:11:51;;;;;;;0.00;0.00;;;;;;;;;;5051840;28;20098;-78
2022/11/23 02:14:18;;;;;;;0.00;0.00;;;;;;;;;;5053261;28;20383;-78
2022/11/23 02:16:44;;;;;;;0.00;0.00;;;;;;;;;;5053447;28;20163;-78
2022/11/23 02:19:16;;;;;;;0.00;0.00;;;;;;;;;;5046555;28;20112;-76
2022/11/23 02:21:42;;;;;;;0.00;0.00;;;;;;;;;;5049587;28;20029;-77
2022/11/23 02:24:11;;;;;;;0.00;0.00;;;;;;;;;;5053126;28;20044;-75
2022/11/23 02:26:38;;;;;;;0.00;0.00;;;;;;;;;;5047806;28;20032;-76
2022/11/23 02:29:13;;;;;;;0.00;0.00;;;;;;;;;;5038320;28;20025;-77
2022/11/23 02:31:40;;;;;;;0.00;0.00;;;;;;;;;;5046717;28;20349;-77
2022/11/23 02:34:06;;;;;;;0.00;0.00;;;;;;;;;;5052942;28;20025;-78
2022/11/23 02:36:38;;;;;;;0.00;0.00;;;;;;;;;;5051248;28;20031;-78
2022/11/23 02:39:15;;;;;;;0.00;0.00;;;;;;;;;;5049293;28;20028;-77
2022/11/23 02:41:48;;;;;;;0.00;0.00;;;;;;;;;;5046331;28;20029;-77
2022/11/23 02:44:19;;;;;;;0.00;0.00;;;;;;;;;;5049547;28;20052;-77
2022/11/23 02:46:46;;;;;;;0.00;0.00;;;;;;;;;;5050923;28;20029;-77
2022/11/23 02:49:12;;;;;;;0.00;0.00;;;;;;;;;;5052057;28;20054;-77
2022/11/23 02:51:38;;;;;;;0.00;0.00;;;;;;;;;;5045952;28;20274;-78
2022/11/23 02:54:04;;;;;;;0.00;0.00;;;;;;;;;;5048713;28;20028;-78
2022/11/23 02:56:31;;;;;;;0.00;0.00;;;;;;;;;;5041748;28;20036;-76
2022/11/23 02:58:57;;;;;;;0.00;0.00;;;;;;;;;;5045771;28;20028;-78
2022/11/23 03:01:23;;;;;;;0.00;0.00;;;;;;;;;;5046106;28;20029;-78
2022/11/23 03:03:50;;;;;;;0.00;0.00;;;;;;;;;;5044645;28;20017;-76
2022/11/23 03:06:16;;;;;;;0.00;0.00;;;;;;;;;;5042715;28;20780;-76
2022/11/23 03:08:43;;;;;;;0.00;0.00;;;;;;;;;;5047679;28;20034;-77
2022/11/23 03:11:09;;;;;;;0.00;0.00;;;;;;;;;;5044839;28;20037;-83
2022/11/23 03:13:35;;;;;;;0.00;0.00;;;;;;;;;;5045633;28;20017;-82
2022/11/23 03:16:02;;;;;;;0.00;0.00;;;;;;;;;;5047322;28;20048;-81
2022/11/23 03:18:28;;;;;;;0.00;0.00;;;;;;;;;;5042848;28;20024;-85
2022/11/23 03:20:54;;;;;;;0.00;0.00;;;;;;;;;;5053488;28;20403;-83
2022/11/23 03:23:21;;;;;;;0.00;0.00;;;;;;;;;;5047178;28;20025;-81
2022/11/23 03:25:54;;;;;;;0.00;0.00;;;;;;;;;;5050971;28;20024;-82
2022/11/23 03:28:20;;;;;;;0.00;0.00;;;;;;;;;;5053339;28;20142;-80
2022/11/23 03:30:47;;;;;;;0.00;0.00;;;;;;;;;;5046265;28;20029;-83
2022/11/23 03:33:13;;;;;;;0.00;0.00;;;;;;;;;;5053110;28;20029;-81
2022/11/23 03:35:40;;;;;;;0.00;0.00;;;;;;;;;;5051750;28;20108;-82
2022/11/23 03:38:06;;;;;;;0.00;0.00;;;;;;;;;;5050829;28;20037;-80
2022/11/23 03:40:32;;;;;;;0.00;0.00;;;;;;;;;;5048393;28;20021;-82
2022/11/23 03:42:59;;;;;;;0.00;0.00;;;;;;;;;;5049122;28;20032;-83
2022/11/23 03:45:25;;;;;;;0.00;0.00;;;;;;;;;;5043009;28;20033;-81
2022/11/23 03:47:51;;;;;;;0.00;0.00;;;;;;;;;;5045047;28;20145;-84
2022/11/23 03:50:18;;;;;;;0.00;0.00;;;;;;;;;;5053872;28;20362;-80
2022/11/23 03:52:44;;;;;;;0.00;0.00;;;;;;;;;;5045589;28;20052;-83
2022/11/23 03:55:11;;;;;;;0.00;0.00;;;;;;;;;;5044764;28;20112;-83
2022/11/23 03:57:37;;;;;;;0.00;0.00;;;;;;;;;;5040261;28;20104;-81
2022/11/23 04:00:03;;;;;;;0.00;0.00;;;;;;;;;;5041344;28;20127;-85
2022/11/23 04:02:30;;;;;;;0.00;0.00;;;;;;;;;;5053545;28;20441;-81
2022/11/23 04:04:56;;;;;;;0.00;0.00;;;;;;;;;;5043655;28;20350;-85
2022/11/23 04:07:22;;;;;;;0.00;0.00;;;;;;;;;;5043250;28;20028;-78
2022/11/23 04:09:49;;;;;;;0.00;0.00;;;;;;;;;;5047374;28;20045;-78
2022/11/23 04:12:15;;;;;;;0.00;0.00;;;;;;;;;;5055952;28;20079;-84
2022/11/23 04:14:41;;;;;;;0.00;0.00;;;;;;;;;;5038182;28;20385;-81
2022/11/23 04:17:08;;;;;;;0.00;0.00;;;;;;;;;;5038155;28;20063;-81
2022/11/23 04:19:34;;;;;;;0.00;0.00;;;;;;;;;;5037920;28;20120;-78
2022/11/23 04:22:01;;;;;;;0.00;0.00;;;;;;;;;;5043520;28;20028;-82
2022/11/23 04:24:27;;;;;;;0.00;0.00;;;;;;;;;;5045085;28;20129;-86
2022/11/23 04:26:54;;;;;;;0.00;0.00;;;;;;;;;;5048421;28;20151;-83
2022/11/23 04:29:20;;;;;;;0.00;0.00;;;;;;;;;;5046405;28;20029;-82
2022/11/23 04:31:46;;;;;;;0.00;0.00;;;;;;;;;;5053696;28;20477;-85
2022/11/23 04:34:13;;;;;;;0.00;0.00;;;;;;;;;;5052335;28;20029;-79
2022/11/23 04:36:39;;;;;;;0.00;0.00;;;;;;;;;;5048826;28;20636;-83
2022/11/23 04:39:06;;;;;;;0.00;0.00;;;;;;;;;;5047646;28;20028;-83
2022/11/23 04:41:32;;;;;;;0.00;0.00;;;;;;;;;;5047433;28;20033;-84
2022/11/23 04:43:58;;;;;;;0.00;0.00;;;;;;;;;;5049991;28;20029;-83
2022/11/23 04:46:25;;;;;;;0.00;0.00;;;;;;;;;;5048795;28;20039;-84
2022/11/23 04:48:51;;;;;;;0.00;0.00;;;;;;;;;;5049897;28;20027;-83
2022/11/23 04:51:17;;;;;;;0.00;0.00;;;;;;;;;;5042731;28;20708;-76
2022/11/23 04:53:44;;;;;;;0.00;0.00;;;;;;;;;;5036988;28;20021;-82
2022/11/23 04:56:10;;;;;;;0.00;0.00;;;;;;;;;;5047136;28;20087;-77
2022/11/23 04:58:37;;;;;;;0.00;0.00;;;;;;;;;;5042909;28;20025;-86
2022/11/23 05:01:03;;;;;;;0.00;0.00;;;;;;;;;;5054437;28;20063;-76
2022/11/23 05:03:30;;;;;;;0.00;0.00;;;;;;;;;;5053959;28;20067;-80
2022/11/23 05:05:59;;;;;;;0.00;0.00;;;;;;;;;;5048975;28;20033;-78
2022/11/23 05:08:26;;;;;;;0.00;0.00;;;;;;;;;;5045528;28;20029;-79
2022/11/23 05:10:52;;;;;;;0.00;0.00;;;;;;;;;;5042564;28;20128;-81
2022/11/23 05:13:18;;;;;;;0.00;0.00;;;;;;;;;;5042893;28;20039;-80
2022/11/23 05:15:45;;;;;;;0.00;0.00;;;;;;;;;;5045567;28;20070;-84
2022/11/23 05:18:12;;;;;;;0.00;0.00;;;;;;;;;;5043574;28;20473;-87
2022/11/23 05:20:56;;;;;;;0.00;0.00;;;;;;;;;;5043527;28;20025;-94
2022/11/23 05:23:22;;;;;;;0.00;0.00;;;;;;;;;;5049265;28;20025;-87
2022/11/23 05:25:49;;;;;;;0.00;0.00;;;;;;;;;;5025372;28;20120;-86
2022/11/23 05:28:16;;;;;;;0.00;0.00;;;;;;;;;;5042721;28;20091;-92
2022/11/23 05:30:43;;;;;;;0.00;0.00;;;;;;;;;;5048234;28;20569;-85
2022/11/23 05:33:09;;;;;;;0.00;0.00;;;;;;;;;;5045576;28;20037;-85
2022/11/23 05:35:36;;;;;;;0.00;0.00;;;;;;;;;;5048125;28;20024;-86
2022/11/23 05:38:02;;;;;;;0.00;0.00;;;;;;;;;;5045734;28;20029;-84
2022/11/23 05:40:28;;;;;;;0.00;0.00;;;;;;;;;;5049119;28;20492;-83
2022/11/23 05:42:58;;;;;;;0.00;0.00;;;;;;;;;;5046733;28;20103;-83
2022/11/23 05:45:24;;;;;;;0.00;0.00;;;;;;;;;;5047143;28;20852;-82
2022/11/23 05:47:51;;;;;;;0.00;0.00;;;;;;;;;;5046953;28;20124;-84
2022/11/23 05:50:18;;;;;;;0.00;0.00;;;;;;;;;;5037656;28;20601;-86
2022/11/23 05:52:44;;;;;;;0.00;0.00;;;;;;;;;;5040515;28;20037;-84
2022/11/23 05:55:10;;;;;;;0.00;0.00;;;;;;;;;;5041105;28;20058;-83
2022/11/23 05:57:36;;;;;;;0.00;0.00;;;;;;;;;;5037355;28;20535;-83
2022/11/23 06:00:09;;;;;;;0.00;0.00;;;;;;;;;;5039965;28;20044;-85
2022/11/23 06:02:35;;;;;;;0.00;0.00;;;;;;;;;;5043413;28;20022;-87
2022/11/23 06:05:05;;;;;;;0.00;0.00;;;;;;;;;;5038468;28;20025;-85
2022/11/23 06:07:32;;;;;;;0.00;0.00;;;;;;;;;;5037151;28;20079;-88
2022/11/23 06:09:58;;;;;;;0.00;0.00;;;;;;;;;;5050392;28;20416;-87
2022/11/23 06:12:25;;;;;;;0.00;0.00;;;;;;;;;;5047038;28;20025;-84
2022/11/23 06:14:51;;;;;;;0.00;0.00;;;;;;;;;;5042754;28;20017;-86
2022/11/23 06:17:17;;;;;;;0.00;0.00;;;;;;;;;;5050774;28;20033;-85
2022/11/23 06:19:44;;;;;;;0.00;0.00;;;;;;;;;;5051088;28;20029;-84
2022/11/23 06:22:14;;;;;;;0.00;0.00;;;;;;;;;;5047505;28;20027;-85
2022/11/23 06:24:40;;;;;;;0.00;0.00;;;;;;;;;;5048503;28;20120;-84
2022/11/23 06:27:07;;;;;;;0.00;0.00;;;;;;;;;;5044237;28;20039;-84
2022/11/23 06:29:33;;;;;;;0.00;0.00;;;;;;;;;;5045911;28;20103;-88
2022/11/23 06:32:00;;;;;;;0.00;0.00;;;;;;;;;;5024227;28;20034;-85
2022/11/23 06:34:26;;;;;;;0.00;0.00;;;;;;;;;;5043594;28;20032;-84
2022/11/23 06:36:52;;;;;;;0.00;0.00;;;;;;;;;;5041894;28;20037;-82
2022/11/23 06:39:19;;;;;;;0.00;0.00;;;;;;;;;;5043881;28;20028;-86
2022/11/23 06:41:45;;;;;;;0.00;0.00;;;;;;;;;;5042788;28;20039;-81
2022/11/23 06:44:11;;;;;;;0.00;0.00;;;;;;;;;;5055759;28;20039;-83
2022/11/23 06:46:38;;;;;;;0.00;0.00;;;;;;;;;;5042067;28;20032;-81
2022/11/23 06:49:04;;;;;;;0.00;0.00;;;;;;;;;;5046649;28;20028;-81
2022/11/23 06:51:30;;;;;;;0.00;0.00;;;;;;;;;;5044136;28;20084;-85
2022/11/23 06:53:57;;;;;;;0.00;0.00;;;;;;;;;;5038127;28;20163;-80
2022/11/23 06:56:23;;;;;;;0.00;0.00;;;;;;;;;;5044065;28;20055;-81
2022/11/23 06:58:49;;;;;;;0.00;0.00;;;;;;;;;;5046069;28;20056;-82
2022/11/23 07:01:16;;;;;;;0.00;0.00;;;;;;;;;;5037335;28;20783;-82
2022/11/23 07:03:42;;;;;;;0.00;0.00;;;;;;;;;;5044745;28;20437;-79
2022/11/23 07:06:09;;;;;;;0.00;0.00;;;;;;;;;;5046854;28;20021;-84
2022/11/23 07:08:42;;;;;;;0.00;0.00;;;;;;;;;;5045732;28;20027;-81
2022/11/23 07:11:09;;;;;;;0.00;0.00;;;;;;;;;;5036813;28;20621;-81
2022/11/23 07:13:35;;;;;;;0.00;0.00;;;;;;;;;;5044533;28;20036;-82
2022/11/23 07:16:01;;;;;;;0.00;0.00;;;;;;;;;;5046087;28;20039;-82
2022/11/23 07:18:29;;;;;;;0.00;0.00;;;;;;;;;;5047405;28;20024;-83
2022/11/23 07:20:58;;;;;;;0.00;0.00;;;;;;;;;;5043467;28;20029;-81
2022/11/23 07:23:24;;;;;;;0.00;0.00;;;;;;;;;;5049496;28;20025;-83
2022/11/23 07:25:51;;;;;;;0.00;0.00;;;;;;;;;;5048251;28;20021;-83
2022/11/23 07:28:17;;;;;;;0.00;0.00;;;;;;;;;;5044446;28;20098;-82
2022/11/23 07:30:44;;;;;;;0.00;0.00;;;;;;;;;;5036571;28;20028;-80
2022/11/23 07:33:12;;;;;;;0.00;0.00;;;;;;;;;;5040078;28;20553;-83
2022/11/23 07:35:39;;;;;;;0.00;0.00;;;;;;;;;;5050354;28;20190;-80
2022/11/23 07:38:08;;;;;;;0.00;0.00;;;;;;;;;;5044564;28;20037;-82
2022/11/23 07:40:39;;;;;;;0.00;0.00;;;;;;;;;;5043742;28;20017;-79
2022/11/23 07:43:06;;;;;;;0.00;0.00;;;;;;;;;;5042710;28;20032;-83
2022/11/23 07:45:35;;;;;;;0.00;0.00;;;;;;;;;;5044586;28;20028;-83
2022/11/23 07:48:04;;;;;;;0.00;0.00;;;;;;;;;;5048116;28;20119;-81
2022/11/23 07:50:31;;;;;;;0.00;0.00;;;;;;;;;;5030375;28;20045;-83
2022/11/23 07:52:57;;;;;;;0.00;0.00;;;;;;;;;;5047096;28;20131;-82
2022/11/23 07:55:24;;;;;;;0.00;0.00;;;;;;;;;;5045807;28;20025;-82
2022/11/23 07:57:54;;;;;;;0.00;0.00;;;;;;;;;;5055422;28;20025;-83
2022/11/23 08:00:21;;;;;;;0.00;0.00;;;;;;;;;;5050340;28;20103;-83
2022/11/23 08:02:47;;;;;;;0.00;0.00;;;;;;;;;;5051171;28;20493;-83
2022/11/23 08:05:14;;;;;;;0.00;0.00;;;;;;;;;;5044992;28;20039;-84
2022/11/23 08:07:40;;;;;;;0.00;0.00;;;;;;;;;;5025173;28;20120;-84
2022/11/23 08:10:07;;;;;;;0.00;0.00;;;;;;;;;;5030819;28;20041;-83
2022/11/23 08:12:33;;;;;;;0.00;0.00;;;;;;;;;;5043650;28;20034;-82
2022/11/23 08:14:59;;;;;;;0.00;0.00;;;;;;;;;;5038795;28;20041;-84
2022/11/23 08:17:26;;;;;;;0.00;0.00;;;;;;;;;;5042152;28;20442;-82
2022/11/23 08:19:52;;;;;;;0.00;0.00;;;;;;;;;;5045388;28;20031;-82
2022/11/23 08:22:20;;;;;;;0.00;0.00;;;;;;;;;;5040735;28;20396;-83
2022/11/23 08:24:46;;;;;;;0.00;0.00;;;;;;;;;;5042433;28;20021;-84
2022/11/23 08:27:13;;;;;;;0.00;0.00;;;;;;;;;;5058312;28;20112;-85
2022/11/23 08:29:39;;;;;;;0.00;0.00;;;;;;;;;;5030207;28;20033;-85
2022/11/23 08:32:06;;;;;;;0.00;0.00;;;;;;;;;;5043694;28;20907;-85
2022/11/23 08:34:32;;;;;;;0.00;0.00;;;;;;;;;;5048447;28;20025;-81
2022/11/23 08:36:58;;;;;;;0.00;0.00;;;;;;;;;;5044503;28;20021;-89
2022/11/23 08:39:24;;;;;;;0.00;0.00;;;;;;;;;;5052007;28;20720;-84
2022/11/23 08:41:51;;;;;;;0.00;0.00;;;;;;;;;;5041629;28;20122;-85
2022/11/23 08:44:17;;;;;;;0.00;0.00;;;;;;;;;;5025055;28;20021;-82
2022/11/23 08:46:43;;;;;;;0.00;0.00;;;;;;;;;;5043327;28;20036;-82
2022/11/23 08:49:10;;;;;;;0.00;0.00;;;;;;;;;;5041646;28;20033;-84
2022/11/23 08:51:36;;;;;;;0.00;0.00;;;;;;;;;;5053992;28;20042;-82
2022/11/23 08:54:02;;;;;;;0.00;0.00;;;;;;;;;;5048853;28;20028;-83
2022/11/23 08:56:29;;;;;;;0.00;0.00;;;;;;;;;;5049490;28;20021;-80
2022/11/23 08:58:55;;;;;;;0.00;0.00;;;;;;;;;;5031664;28;20447;-83
2022/11/23 09:01:22;;;;;;;0.00;0.00;;;;;;;;;;5049773;28;20031;-83
2022/11/23 09:03:48;;;;;;;0.00;0.00;;;;;;;;;;5039519;28;20342;-83
2022/11/23 09:06:14;;;;;;;0.00;0.00;;;;;;;;;;5046038;28;20525;-82
2022/11/23 09:08:41;;;;;;;0.00;0.00;;;;;;;;;;5053163;28;20029;-80
2022/11/23 09:11:09;;;;;;;0.00;0.00;;;;;;;;;;5048162;28;20029;-80
2022/11/23 09:13:36;;;;;;;0.00;0.00;;;;;;;;;;5051175;28;20037;-81
2022/11/23 09:16:04;;;;;;;0.00;0.00;;;;;;;;;;5046412;28;20035;-80
2022/11/23 09:18:30;;;;;;;0.00;0.00;;;;;;;;;;5048807;28;20481;-81
2022/11/23 09:20:57;;;;;;;0.00;0.00;;;;;;;;;;5032899;28;20034;-81
2022/11/23 09:23:25;;;;;;;0.00;0.00;;;;;;;;;;5052734;28;20021;-80
2022/11/23 09:25:52;;;;;;;0.00;0.00;;;;;;;;;;5046402;28;20215;-81
2022/11/23 09:28:18;;;;;;;0.00;0.00;;;;;;;;;;5050807;28;20029;-81
2022/11/23 09:30:46;;;;;;;0.00;0.00;;;;;;;;;;5052887;28;20332;-84
2022/11/23 09:33:12;;;;;;;0.00;0.00;;;;;;;;;;5053753;28;20032;-85
2022/11/23 09:35:40;;;;;;;0.00;0.00;;;;;;;;;;5052159;28;20024;-83
2022/11/23 09:38:07;;;;;;;0.00;0.00;;;;;;;;;;5036783;28;20032;-84
2022/11/23 09:40:37;;;;;;;0.00;0.00;;;;;;;;;;5028639;28;20492;-82
2022/11/23 09:43:38;;;;;;;0.00;0.00;;;;;;;;;;5052346;28;20450;-83
2022/11/23 09:46:11;;;;;;;0.00;0.00;;;;;;;;;;5003928;28;20120;-81
2022/11/23 09:49:13;;;;;;;0.00;0.00;;;;;;;;;;5032276;28;20044;-82
2022/11/23 09:51:42;;;;;;;0.00;0.00;;;;;;;;;;4977623;28;20205;-80
2022/11/23 09:54:19;;;;;;;0.00;0.00;;;;;;;;;;5028973;28;20052;-81
2022/11/23 09:56:48;;;;;;;0.00;0.00;;;;;;;;;;5043515;28;20037;-82
2022/11/23 09:59:17;;;;;;;0.00;0.00;;;;;;;;;;5029321;28;20504;-82
2022/11/23 10:01:44;;;;;;;0.00;0.00;;;;;;;;;;5037810;28;20481;-78
2022/11/23 10:04:15;;;;;;;0.00;0.00;;;;;;;;;;5033935;28;21383;-82
2022/11/23 10:06:42;;;;;;;0.00;0.00;;;;;;;;;;5024875;28;20550;-83
2022/11/23 10:09:36;;;;;;;0.00;0.00;;;;;;;;;;5045154;28;20097;-82
2022/11/23 10:12:29;;;;;;;0.00;0.00;;;;;;;;;;5022818;28;20029;-81
2022/11/23 10:15:14;;;;;;;0.00;0.00;;;;;;;;;;5046389;28;20541;-81
2022/11/23 10:17:59;;;;;;;0.00;0.00;;;;;;;;;;5044387;28;20505;-81
2022/11/23 10:20:43;;;;;;;0.00;0.00;;;;;;;;;;5042514;28;20072;-81
2022/11/23 10:23:32;;;;;;;0.00;0.00;;;;;;;;;;5037497;28;20025;-81
2022/11/23 10:25:59;;;;;;;0.00;0.00;;;;;;;;;;5033947;28;20548;-81
2022/11/23 10:28:28;;;;;;;0.00;0.00;;;;;;;;;;5039994;28;20025;-81
2022/11/23 10:31:01;;;;;;;0.00;0.00;;;;;;;;;;5039078;28;20079;-82
2022/11/23 10:33:32;;;;;;;0.00;0.00;;;;;;;;;;5045517;28;20493;-81
2022/11/23 10:35:58;;;;;;;0.00;0.00;;;;;;;;;;5039088;28;20037;-82
2022/11/23 10:38:28;;;;;;;0.00;0.00;;;;;;;;;;5038149;28;20022;-80
2022/11/23 10:41:01;;;;;;;0.00;0.00;;;;;;;;;;5038637;28;20035;-82
2022/11/23 10:44:02;;;;;;;0.00;0.00;;;;;;;;;;5043838;28;20040;-82
2022/11/23 10:46:36;;;;;;;0.00;0.00;;;;;;;;;;4977456;28;20096;-83
2022/11/23 10:49:08;;;;;;;0.00;0.00;;;;;;;;;;5018331;28;20407;-82
2022/11/23 10:51:35;;;;;;;0.00;0.00;;;;;;;;;;5026085;28;20024;-81
2022/11/23 10:54:03;;;;;;;0.00;0.00;;;;;;;;;;5028858;28;20021;-81
2022/11/23 10:56:30;;;;;;;0.00;0.00;;;;;;;;;;5043449;28;20033;-82
2022/11/23 10:58:56;;;;;;;0.00;0.00;;;;;;;;;;5042884;28;20017;-81
2022/11/23 11:01:25;;;;;;;0.00;0.00;;;;;;;;;;5019119;28;20036;-83
2022/11/23 11:03:55;;;;;;;0.00;0.00;;;;;;;;;;5037004;28;20091;-82
2022/11/23 11:06:23;;;;;;;0.00;0.00;;;;;;;;;;5043745;28;20343;-82
2022/11/23 11:09:04;;;;;;;0.00;0.00;;;;;;;;;;5037579;28;20037;-82
2022/11/23 11:11:45;;;;;;;0.00;0.00;;;;;;;;;;5032740;28;20362;-80
2022/11/23 11:14:16;;;;;;;0.00;0.00;;;;;;;;;;5033175;28;20459;-83
2022/11/23 11:16:50;;;;;;;0.00;0.00;;;;;;;;;;5046942;28;20020;-82
2022/11/23 11:19:42;;;;;;;0.00;0.00;;;;;;;;;;5022353;28;20060;-82
2022/11/23 11:22:26;;;;;;;0.00;0.00;;;;;;;;;;5036641;28;20087;-83
2022/11/23 11:24:52;;;;;;;0.00;0.00;;;;;;;;;;5043963;28;20473;-83
2022/11/23 11:27:23;;;;;;;0.00;0.00;;;;;;;;;;5043110;28;20287;-83
2022/11/23 11:29:58;;;;;;;0.00;0.00;;;;;;;;;;5047721;28;20025;-81
2022/11/23 11:32:31;;;;;;;0.00;0.00;;;;;;;;;;5042764;28;20029;-80
2022/11/23 11:34:57;;;;;;;0.00;0.00;;;;;;;;;;5046916;28;20036;-80
2022/11/23 11:37:32;;;;;;;0.00;0.00;;;;;;;;;;5040681;28;20494;-82
2022/11/23 11:40:19;;;;;;;0.00;0.00;;;;;;;;;;5039147;28;20939;-82
2022/11/23 11:42:59;;;;;;;0.00;0.00;;;;;;;;;;5002667;28;20041;-81
2022/11/23 11:45:28;;;;;;;0.00;0.00;;;;;;;;;;5027006;28;20029;-82
2022/11/23 11:48:00;;;;;;;0.00;0.00;;;;;;;;;;5028470;28;20036;-81
2022/11/23 11:50:29;;;;;;;0.00;0.00;;;;;;;;;;5036809;28;20074;-83
2022/11/23 11:53:04;;;;;;;0.00;0.00;;;;;;;;;;5040423;28;20060;-84
2022/11/23 11:55:50;;;;;;;0.00;0.00;;;;;;;;;;5041408;28;20037;-82
2022/11/23 11:58:17;;;;;;;0.00;0.00;;;;;;;;;;5026085;28;20028;-83
2022/11/23 12:00:45;;;;;;;0.00;0.00;;;;;;;;;;5045077;28;20374;-81
2022/11/23 12:03:47;;;;;;;0.00;0.00;;;;;;;;;;5041855;28;20021;-82
2022/11/23 12:06:18;;;;;;;0.00;0.00;;;;;;;;;;4985449;28;20560;-86
2022/11/23 12:08:55;;;;;;;0.00;0.00;;;;;;;;;;5040063;28;20481;-83
2022/11/23 12:11:21;;;;;;;0.00;0.00;;;;;;;;;;5048361;28;20041;-82
2022/11/23 12:13:48;;;;;;;0.00;0.00;;;;;;;;;;5047878;28;20043;-83
2022/11/23 12:16:24;;;;;;;0.00;0.00;;;;;;;;;;5045868;28;20131;-83
2022/11/23 12:19:09;;;;;;;0.00;0.00;;;;;;;;;;5022514;28;20367;-82
2022/11/23 12:22:02;;;;;;;0.00;0.00;;;;;;;;;;5039074;28;20035;-83
2022/11/23 12:24:29;;;;;;;0.00;0.00;;;;;;;;;;5041414;28;20489;-84
2022/11/23 12:27:15;;;;;;;0.00;0.00;;;;;;;;;;5038849;28;20025;-83
2022/11/23 12:29:44;;;;;;;0.00;0.00;;;;;;;;;;5013750;28;20064;-82
2022/11/23 12:32:25;;;;;;;0.00;0.00;;;;;;;;;;5041053;28;20071;-82
2022/11/23 12:34:51;;;;;;;0.00;0.00;;;;;;;;;;5041429;28;20043;-81
2022/11/23 12:37:21;;;;;;;0.00;0.00;;;;;;;;;;5040066;28;20049;-83
2022/11/23 12:39:53;;;;;;;0.00;0.00;;;;;;;;;;5020331;28;20499;-84
2022/11/23 12:42:41;;;;;;;0.00;0.00;;;;;;;;;;5042290;28;20024;-83
2022/11/23 12:45:20;;;;;;;0.00;0.00;;;;;;;;;;5045602;28;20068;-83
2022/11/23 12:47:58;;;;;;;0.00;0.00;;;;;;;;;;5042026;28;20025;-83
2022/11/23 12:50:28;;;;;;;0.00;0.00;;;;;;;;;;5047145;28;20021;-84
2022/11/23 12:53:17;;;;;;;0.00;0.00;;;;;;;;;;5048614;28;20044;-84
2022/11/23 12:56:03;;;;;;;0.00;0.00;;;;;;;;;;5041097;28;20032;-84
2022/11/23 12:58:30;;;;;;;0.00;0.00;;;;;;;;;;5047786;28;20036;-83
2022/11/23 13:01:02;;;;;;;0.00;0.00;;;;;;;;;;5047878;28;20021;-85
2022/11/23 13:03:38;;;;;;;0.00;0.00;;;;;;;;;;5051840;28;20017;-83
2022/11/23 13:06:04;;;;;;;0.00;0.00;;;;;;;;;;5046131;28;20082;-83
2022/11/23 13:08:46;;;;;;;0.00;0.00;;;;;;;;;;5041231;28;20056;-83
2022/11/23 13:11:15;;;;;;;0.00;0.00;;;;;;;;;;5046529;28;20037;-84
2022/11/23 13:13:48;;;;;;;0.00;0.00;;;;;;;;;;5044941;28;20095;-83
2022/11/23 13:16:53;;;;;;;0.00;0.00;;;;;;;;;;5045563;28;20033;-82
2022/11/23 13:19:19;;;;;;;0.00;0.00;;;;;;;;;;4983906;28;20361;-83
2022/11/23 13:21:46;;;;;;;0.00;0.00;;;;;;;;;;5037272;28;20123;-83
2022/11/23 13:24:29;;;;;;;0.00;0.00;;;;;;;;;;5053348;28;20047;-82
2022/11/23 13:27:14;;;;;;;0.00;0.00;;;;;;;;;;5053955;28;20112;-85
2022/11/23 13:29:49;;;;;;;0.00;0.00;;;;;;;;;;5048505;28;20369;-83
2022/11/23 13:32:34;;;;;;;0.00;0.00;;;;;;;;;;5046870;28;20070;-84
2022/11/23 13:35:01;;;;;;;0.00;0.00;;;;;;;;;;5044683;28;20121;-85
2022/11/23 13:37:27;;;;;;;0.00;0.00;;;;;;;;;;5057444;28;20071;-82
2022/11/23 13:39:57;;;;;;;0.00;0.00;;;;;;;;;;5046356;28;20579;-84
2022/11/23 13:42:27;;;;;;;0.00;0.00;;;;;;;;;;5045824;28;20032;-83
2022/11/23 13:45:12;;;;;;;0.00;0.00;;;;;;;;;;5045581;28;20722;-83
2022/11/23 13:47:38;;;;;;;0.00;0.00;;;;;;;;;;5051956;28;20036;-84
2022/11/23 13:50:09;;;;;;;0.00;0.00;;;;;;;;;;5028457;28;20577;-83
2022/11/23 13:52:35;;;;;;;0.00;0.00;;;;;;;;;;5048816;28;20083;-83
2022/11/23 13:55:18;;;;;;;0.00;0.00;;;;;;;;;;5052073;28;21401;-85
2022/11/23 13:57:47;;;;;;;0.00;0.00;;;;;;;;;;5044178;28;20025;-84
2022/11/23 14:00:32;;;;;;;0.00;0.00;;;;;;;;;;5030151;28;20486;-84
2022/11/23 14:03:18;;;;;;;0.00;0.00;;;;;;;;;;5031112;28;20374;-85
2022/11/23 14:05:47;;;;;;;0.00;0.00;;;;;;;;;;5029140;28;20033;-84
2022/11/23 14:08:16;;;;;;;0.00;0.00;;;;;;;;;;5035085;28;20119;-83
2022/11/23 14:10:42;;;;;;;0.00;0.00;;;;;;;;;;5049988;28;20086;-84
2022/11/23 14:13:15;;;;;;;0.00;0.00;;;;;;;;;;5057149;28;20028;-86
2022/11/23 14:15:45;;;;;;;0.00;0.00;;;;;;;;;;5037018;28;20083;-85
2022/11/23 14:18:30;;;;;;;0.00;0.00;;;;;;;;;;5035634;28;20078;-85
2022/11/23 14:21:15;;;;;;;0.00;0.00;;;;;;;;;;5050587;28;20021;-86
2022/11/23 14:24:00;;;;;;;0.00;0.00;;;;;;;;;;5053177;28;20096;-85
2022/11/23 14:26:39;;;;;;;0.00;0.00;;;;;;;;;;5047949;28;20036;-86
2022/11/23 14:29:23;;;;;;;0.00;0.00;;;;;;;;;;5075581;23;20044;-85
2022/11/23 14:32:07;;;;;;;0.00;0.00;;;;;;;;;;5073561;28;20025;-85
2022/11/23 14:34:40;;;;;;;0.00;0.00;;;;;;;;;;5068894;28;20021;-84
2022/11/23 14:37:24;;;;;;;0.00;0.00;;;;;;;;;;5081779;28;20381;-85
2022/11/23 14:39:58;;;;;;;0.00;0.00;;;;;;;;;;5072190;28;20020;-85
2022/11/23 14:42:26;;;;;;;0.00;0.00;;;;;;;;;;5072742;28;20404;-84
2022/11/23 14:44:53;;;;;;;0.00;0.00;;;;;;;;;;5071892;28;20023;-82
2022/11/23 14:47:27;;;;;;;0.00;0.00;;;;;;;;;;5071930;28;20033;-84
2022/11/23 14:49:54;;;;;;;0.00;0.00;;;;;;;;;;5070785;28;20077;-84
2022/11/23 14:52:32;;;;;;;0.00;0.00;;;;;;;;;;5053972;28;20033;-85
2022/11/23 14:55:01;;;;;;;0.00;0.00;;;;;;;;;;5067356;28;20021;-86
2022/11/23 14:57:45;;;;;;;0.00;0.00;;;;;;;;;;5065921;28;20090;-85
2022/11/23 15:00:31;;;;;;;0.00;0.00;;;;;;;;;;5072044;28;20095;-86
2022/11/23 15:03:01;;;;;;;0.00;0.00;;;;;;;;;;5072123;28;20409;-85
2022/11/23 15:05:32;;;;;;;0.00;0.00;;;;;;;;;;5068189;28;20363;-86
2022/11/23 15:08:04;;;;;;;0.00;0.00;;;;;;;;;;5068769;28;20117;-85
2022/11/23 15:10:49;;;;;;;0.00;0.00;;;;;;;;;;5067810;28;20025;-85